Time;durP1;ratioP1;P1;durP2;ratioP2;P2;SDS_P1;SDS_P2;PMS_P1;PMS_P2;Temp;Humidity;BMP_temperature;BMP_pressure;BME280_temperature;BME280_humidity;BME280_pressure;Samples;Min_cycle;Max_cycle;Signal;HPM_P1;HPM_P2
2023/01/04 00:02:02;;;;;;;4.17;3.63;;;9.20;99.90;;;;;;5059308;28;20673;-66
2023/01/04 00:04:33;;;;;;;2.90;2.70;;;9.20;99.90;;;;;;5068170;28;20203;-66
2023/01/04 00:07:02;;;;;;;6.37;4.00;;;9.20;99.90;;;;;;5067984;28;20204;-67
2023/01/04 00:09:30;;;;;;;7.30;3.87;;;9.30;99.90;;;;;;5072054;28;20210;-65
2023/01/04 00:11:58;;;;;;;4.23;3.93;;;9.30;99.90;;;;;;5068970;28;20212;-65
2023/01/04 00:14:27;;;;;;;6.40;3.90;;;9.30;99.90;;;;;;5071338;28;20590;-65
2023/01/04 00:16:55;;;;;;;6.90;3.97;;;9.30;99.90;;;;;;5063775;28;20566;-65
2023/01/04 00:19:23;;;;;;;5.23;3.90;;;9.30;99.90;;;;;;5069346;28;20196;-64
2023/01/04 00:21:53;;;;;;;5.50;4.10;;;9.40;99.90;;;;;;5068463;28;20198;-65
2023/01/04 00:24:22;;;;;;;7.63;3.87;;;9.40;99.90;;;;;;5063543;28;20255;-64
2023/01/04 00:26:50;;;;;;;6.13;4.17;;;9.40;99.90;;;;;;5049486;28;20188;-63
2023/01/04 00:29:19;;;;;;;4.23;3.80;;;9.40;99.90;;;;;;5072630;28;20557;-65
2023/01/04 00:31:47;;;;;;;6.93;4.07;;;9.40;99.90;;;;;;5063409;28;20555;-65
2023/01/04 00:34:18;;;;;;;10.33;4.30;;;9.40;99.90;;;;;;5065007;28;20241;-64
2023/01/04 00:36:47;;;;;;;7.20;4.57;;;9.40;99.90;;;;;;5094747;28;20203;-64
2023/01/04 00:39:17;;;;;;;4.53;4.23;;;9.40;99.90;;;;;;5067755;28;20651;-64
2023/01/04 00:41:47;;;;;;;8.37;4.50;;;9.50;99.90;;;;;;5065573;28;20288;-64
2023/01/04 00:44:27;;;;;;;6.80;4.60;;;9.40;99.90;;;;;;5061432;28;20202;-64
2023/01/04 00:46:56;;;;;;;6.27;5.23;;;9.50;99.90;;;;;;5067070;28;20211;-65
2023/01/04 00:49:27;;;;;;;6.80;4.77;;;9.50;99.90;;;;;;5070365;28;20203;-64
2023/01/04 00:51:56;;;;;;;5.30;4.80;;;9.50;99.90;;;;;;5066152;28;20204;-65
2023/01/04 00:54:25;;;;;;;9.13;4.90;;;9.50;99.90;;;;;;5064557;28;20266;-64
2023/01/04 00:56:54;;;;;;;7.77;4.70;;;9.50;99.90;;;;;;5062901;28;20233;-64
2023/01/04 00:59:22;;;;;;;10.63;5.00;;;9.50;99.90;;;;;;5072003;28;20200;-64
2023/01/04 01:01:51;;;;;;;5.80;4.60;;;9.50;99.90;;;;;;5059341;28;20548;-65
2023/01/04 01:04:23;;;;;;;10.67;5.30;;;9.50;99.90;;;;;;5070853;28;20203;-65
2023/01/04 01:06:52;;;;;;;6.10;5.37;;;9.60;99.90;;;;;;5068348;28;20543;-64
2023/01/04 01:09:22;;;;;;;7.20;5.10;;;9.60;99.90;;;;;;5065819;28;20210;-64
2023/01/04 01:11:53;;;;;;;12.23;5.57;;;9.60;99.90;;;;;;5067903;28;20239;-64
2023/01/04 01:14:24;;;;;;;9.37;5.70;;;9.60;99.90;;;;;;5070745;28;20202;-65
2023/01/04 01:16:53;;;;;;;6.13;5.50;;;9.60;99.90;;;;;;5061085;28;20228;-66
2023/01/04 01:19:26;;;;;;;9.40;5.93;;;9.60;99.90;;;;;;5070215;28;20269;-66
2023/01/04 01:21:56;;;;;;;9.50;5.50;;;9.60;99.90;;;;;;5066853;28;20266;-65
2023/01/04 01:24:24;;;;;;;9.40;5.20;;;9.60;99.90;;;;;;5071263;28;20231;-66
2023/01/04 01:26:54;;;;;;;9.30;5.40;;;9.60;99.90;;;;;;5064672;28;20668;-65
2023/01/04 01:29:25;;;;;;;9.13;6.00;;;9.60;99.90;;;;;;5069991;28;20203;-65
2023/01/04 01:31:54;;;;;;;5.97;5.33;;;9.70;99.90;;;;;;5073448;28;20238;-66
2023/01/04 01:34:22;;;;;;;8.03;5.70;;;9.70;99.90;;;;;;5070322;28;20200;-65
2023/01/04 01:36:51;;;;;;;10.10;5.47;;;9.70;99.90;;;;;;5070605;28;20210;-66
2023/01/04 01:39:19;;;;;;;8.97;4.70;;;9.70;99.90;;;;;;5085602;28;20236;-65
2023/01/04 01:41:48;;;;;;;8.13;5.13;;;9.70;99.90;;;;;;5069859;28;20530;-65
2023/01/04 01:45:09;;;;;;;7.63;5.10;;;9.80;99.90;;;;;;5069263;28;20196;-65
2023/01/04 01:47:42;;;;;;;8.90;5.13;;;9.80;99.90;;;;;;5046957;28;20239;-65
2023/01/04 01:50:24;;;;;;;7.67;5.03;;;9.80;99.90;;;;;;5070138;28;20299;-64
2023/01/04 01:52:56;;;;;;;9.20;5.30;;;9.80;99.90;;;;;;5071640;28;20224;-65
2023/01/04 01:55:25;;;;;;;9.13;5.47;;;9.80;99.90;;;;;;5066196;28;20192;-64
2023/01/04 01:57:55;;;;;;;5.73;4.97;;;9.80;99.90;;;;;;5099750;28;20238;-65
2023/01/04 02:00:23;;;;;;;5.93;5.07;;;9.90;99.90;;;;;;5067692;28;20290;-65
2023/01/04 02:03:03;;;;;;;12.03;5.40;;;9.90;99.90;;;;;;5097586;28;20254;-65
2023/01/04 02:05:33;;;;;;;7.57;4.80;;;9.90;99.90;;;;;;5101567;28;20542;-65
2023/01/04 02:08:06;;;;;;;10.30;5.00;;;9.90;99.90;;;;;;5053699;28;20291;-65
2023/01/04 02:10:34;;;;;;;5.43;4.93;;;10.00;99.90;;;;;;5063870;28;20196;-65
2023/01/04 02:13:09;;;;;;;10.87;4.93;;;10.00;99.90;;;;;;5068498;28;20218;-64
2023/01/04 02:15:53;;;;;;;6.57;5.07;;;10.00;99.90;;;;;;5068789;28;20188;-65
2023/01/04 02:18:30;;;;;;;8.03;4.87;;;10.00;99.90;;;;;;5067501;28;20200;-64
2023/01/04 02:21:05;;;;;;;6.00;4.43;;;10.00;99.90;;;;;;5073287;28;20188;-64
2023/01/04 02:24:05;;;;;;;6.90;4.60;;;10.00;99.90;;;;;;5069817;28;20192;-64
2023/01/04 02:27:14;;;;;;;7.20;4.37;;;10.10;99.90;;;;;;5068360;28;20225;-64
2023/01/04 02:30:10;;;;;;;8.00;4.60;;;10.10;99.90;;;;;;5068991;28;20188;-65
2023/01/04 02:32:53;;;;;;;5.03;4.63;;;10.10;99.90;;;;;;5067207;28;20208;-64
2023/01/04 02:35:26;;;;;;;5.73;4.30;;;10.10;99.90;;;;;;5069969;28;20188;-64
2023/01/04 02:38:04;;;;;;;7.50;3.93;;;10.10;99.90;;;;;;5070097;28;20227;-65
2023/01/04 02:40:44;;;;;;;7.23;4.57;;;10.20;99.90;;;;;;5066205;28;20192;-64
2023/01/04 02:46:09;;;;;;;4.77;4.23;;;10.10;99.90;;;;;;5067859;28;20574;-65
2023/01/04 02:51:30;;;;;;;9.30;4.80;;;10.20;99.90;;;;;;5069833;28;20288;-65
2023/01/04 02:54:02;;;;;;;6.40;4.27;;;10.20;99.90;;;;;;5068551;28;20615;-65
2023/01/04 02:56:56;;;;;;;5.10;4.60;;;10.20;99.90;;;;;;5067072;28;20203;-65
2023/01/04 03:00:16;;;;;;;5.73;4.33;;;10.20;99.90;;;;;;5067995;28;20214;-65
2023/01/04 03:06:15;;;;;;;6.00;3.87;;;10.20;99.90;;;;;;5068242;28;20807;-65
2023/01/04 03:08:57;;;;;;;7.53;3.60;;;10.30;99.90;;;;;;5071121;28;20215;-65
2023/01/04 03:14:21;;;;;;;5.47;3.80;;;10.30;99.90;;;;;;5067301;28;20220;-65
2023/01/04 03:17:02;;;;;;;6.93;3.63;;;10.30;99.90;;;;;;5063649;28;20282;-64
2023/01/04 03:19:52;;;;;;;5.67;3.87;;;10.30;99.90;;;;;;5069241;28;20200;-65
2023/01/04 03:36:46;;;;;;;5.80;3.40;;;10.50;99.90;;;;;;5069298;28;20290;-64
2023/01/04 03:50:56;;;;;;;3.67;3.17;;;10.40;99.90;;;;;;5067200;28;20187;-64
2023/01/04 03:53:27;;;;;;;3.80;3.60;;;10.40;99.90;;;;;;5067282;28;20302;-64
2023/01/04 03:55:59;;;;;;;7.27;3.40;;;10.50;99.90;;;;;;5063201;28;20196;-65
2023/01/04 03:58:28;;;;;;;3.70;3.40;;;10.50;99.90;;;;;;5065709;28;20220;-64
2023/01/04 04:01:02;;;;;;;4.00;3.63;;;10.60;99.90;;;;;;5068066;28;20196;-65
2023/01/04 04:09:04;;;;;;;7.20;3.53;;;10.60;99.90;;;;;;5067335;28;20199;-65
2023/01/04 04:11:33;;;;;;;3.90;3.23;;;10.70;99.90;;;;;;5066773;28;20201;-65
2023/01/04 04:14:02;;;;;;;5.33;3.70;;;10.70;99.90;;;;;;5070225;28;20316;-65
2023/01/04 04:16:30;;;;;;;5.13;2.90;;;10.70;99.90;;;;;;5065145;28;20657;-64
2023/01/04 04:18:59;;;;;;;4.23;2.90;;;10.70;99.90;;;;;;5067169;28;20631;-64
2023/01/04 04:21:36;;;;;;;2.80;2.60;;;10.70;99.90;;;;;;5067842;28;20314;-64
2023/01/04 04:24:05;;;;;;;4.47;2.70;;;10.70;99.90;;;;;;5065157;28;20192;-65
2023/01/04 04:26:35;;;;;;;4.67;2.87;;;10.70;99.90;;;;;;5068782;28;20200;-65
2023/01/04 04:29:03;;;;;;;4.40;2.90;;;10.70;99.90;;;;;;5056649;28;20201;-65
2023/01/04 04:31:32;;;;;;;3.50;2.60;;;10.70;99.90;;;;;;5068378;28;20286;-64
2023/01/04 04:34:00;;;;;;;5.70;2.60;;;10.70;99.90;;;;;;5069854;28;20212;-64
2023/01/04 04:36:28;;;;;;;3.03;2.40;;;10.80;99.90;;;;;;5069330;28;20203;-65
2023/01/04 04:38:57;;;;;;;3.60;2.50;;;10.80;99.90;;;;;;5069178;28;20196;-64
2023/01/04 04:41:40;;;;;;;2.60;2.40;;;10.90;99.90;;;;;;5067392;28;20192;-65
2023/01/04 04:44:12;;;;;;;2.37;2.17;;;10.90;99.90;;;;;;5080422;28;20199;-65
2023/01/04 04:46:41;;;;;;;3.73;2.20;;;10.90;99.90;;;;;;5063040;28;20192;-65
2023/01/04 04:49:10;;;;;;;5.03;2.27;;;11.00;99.90;;;;;;5068282;28;20559;-65
2023/01/04 04:51:39;;;;;;;4.67;2.20;;;11.00;99.90;;;;;;5065661;28;20296;-64
2023/01/04 04:54:09;;;;;;;3.70;2.27;;;11.00;99.90;;;;;;5064446;28;20208;-64
2023/01/04 04:56:38;;;;;;;2.30;2.20;;;11.00;99.90;;;;;;5061631;28;20203;-64
2023/01/04 04:59:06;;;;;;;2.83;2.10;;;11.00;99.90;;;;;;5068707;28;20211;-65
2023/01/04 05:01:36;;;;;;;2.40;2.30;;;11.00;99.90;;;;;;5045631;28;20233;-64
2023/01/04 05:04:05;;;;;;;2.67;2.47;;;11.00;99.90;;;;;;5060713;28;20204;-64
2023/01/04 05:06:34;;;;;;;3.43;2.40;;;11.00;99.90;;;;;;5065295;28;20302;-64
2023/01/04 05:09:04;;;;;;;4.57;2.20;;;11.00;99.90;;;;;;5064477;28;20188;-65
2023/01/04 05:14:19;;;;;;;2.67;2.47;;;11.00;99.90;;;;;;5070323;28;20211;-64
2023/01/04 05:16:49;;;;;;;3.83;2.13;;;11.10;99.90;;;;;;5054167;28;20240;-64
2023/01/04 05:19:17;;;;;;;3.50;2.13;;;11.10;99.90;;;;;;5065213;28;20586;-65
2023/01/04 05:21:45;;;;;;;2.70;1.97;;;11.10;99.90;;;;;;5070185;28;20196;-65
2023/01/04 05:24:14;;;;;;;2.07;1.97;;;11.10;99.90;;;;;;5052466;28;20575;-65
2023/01/04 05:26:43;;;;;;;2.50;2.33;;;11.00;99.90;;;;;;5064795;28;20204;-65
2023/01/04 05:30:49;;;;;;;3.90;3.03;;;11.00;99.90;;;;;;5065707;28;20218;-65
2023/01/04 05:32:00;;;;;;;3.63;2.47;;;11.00;99.90;;;;;;5069856;28;20199;-65
2023/01/04 05:34:29;;;;;;;2.57;2.37;;;10.90;99.90;;;;;;5058167;28;20220;-65
2023/01/04 05:36:57;;;;;;;3.33;2.50;;;11.00;99.90;;;;;;5070624;28;20194;-65
2023/01/04 05:39:26;;;;;;;3.80;2.50;;;11.00;99.90;;;;;;5065130;28;20655;-65
2023/01/04 05:44:40;;;;;;;7.20;2.30;;;11.00;99.90;;;;;;5063232;28;20188;-65
2023/01/04 05:47:10;;;;;;;2.70;2.10;;;11.00;99.90;;;;;;5052593;28;20748;-65
2023/01/04 05:49:42;;;;;;;2.10;2.00;;;11.00;99.90;;;;;;5067969;28;20241;-65
2023/01/04 05:52:11;;;;;;;2.00;1.90;;;11.10;99.90;;;;;;5070785;28;20196;-65
2023/01/04 05:54:39;;;;;;;2.43;1.80;;;11.20;99.90;;;;;;5043772;28;20307;-65
2023/01/04 05:57:08;;;;;;;1.93;1.83;;;11.20;99.90;;;;;;5063316;28;20220;-64
2023/01/04 05:59:37;;;;;;;1.70;1.70;;;11.30;99.90;;;;;;5070120;28;20192;-64
2023/01/04 06:02:15;;;;;;;2.97;1.70;;;11.40;99.90;;;;;;5065931;28;20204;-65
2023/01/04 06:04:43;;;;;;;1.97;1.87;;;11.40;99.90;;;;;;5066526;28;20645;-65
2023/01/04 06:07:11;;;;;;;2.10;2.00;;;11.40;99.90;;;;;;5067446;28;20196;-65
2023/01/04 06:09:40;;;;;;;2.00;1.90;;;11.40;99.90;;;;;;5063859;28;20279;-65
2023/01/04 06:12:09;;;;;;;1.90;1.80;;;11.50;99.90;;;;;;5065830;28;20881;-65
2023/01/04 06:14:38;;;;;;;4.10;2.10;;;11.50;99.90;;;;;;5070234;28;20212;-66
2023/01/04 06:17:06;;;;;;;4.30;1.90;;;11.40;99.90;;;;;;5062583;28;20252;-65
2023/01/04 06:19:36;;;;;;;2.00;1.90;;;11.40;99.90;;;;;;5068630;28;20283;-65
2023/01/04 06:22:05;;;;;;;2.00;2.00;;;11.40;99.90;;;;;;5070785;28;20672;-65
2023/01/04 06:24:34;;;;;;;2.10;2.00;;;11.40;99.90;;;;;;5067971;28;20230;-65
2023/01/04 06:27:02;;;;;;;2.43;2.23;;;11.40;99.90;;;;;;5064139;28;20279;-64
2023/01/04 06:29:31;;;;;;;2.43;2.23;;;11.40;99.90;;;;;;5068059;28;20192;-65
2023/01/04 06:31:59;;;;;;;2.27;2.20;;;11.50;99.90;;;;;;5067316;28;20284;-64
2023/01/04 06:34:28;;;;;;;2.10;2.00;;;11.50;99.90;;;;;;5066470;28;20204;-64
2023/01/04 06:37:00;;;;;;;1.90;1.80;;;11.60;99.90;;;;;;5071989;28;20192;-65
2023/01/04 06:39:28;;;;;;;2.70;2.30;;;11.60;99.90;;;;;;5067180;28;20729;-65
2023/01/04 06:41:56;;;;;;;4.80;2.00;;;11.60;99.90;;;;;;5071609;28;20195;-64
2023/01/04 06:44:33;;;;;;;4.57;2.17;;;11.60;99.90;;;;;;5058383;28;20195;-64
2023/01/04 06:47:02;;;;;;;2.17;1.90;;;11.60;99.90;;;;;;5064019;28;20188;-64
2023/01/04 06:49:30;;;;;;;4.20;2.20;;;11.60;99.90;;;;;;5101561;28;20215;-64
2023/01/04 06:52:00;;;;;;;3.03;2.37;;;11.60;99.90;;;;;;5069760;28;20647;-65
2023/01/04 06:54:31;;;;;;;4.27;2.50;;;11.60;99.90;;;;;;5068827;28;20218;-64
2023/01/04 06:56:59;;;;;;;3.33;2.40;;;11.70;99.90;;;;;;5070800;28;20669;-64
2023/01/04 06:59:27;;;;;;;2.17;2.07;;;11.70;99.90;;;;;;5071124;28;20850;-63
2023/01/04 07:01:56;;;;;;;4.80;2.30;;;11.70;99.90;;;;;;5065885;28;20208;-64
2023/01/04 07:04:25;;;;;;;2.30;2.10;;;11.70;99.90;;;;;;5073326;28;20227;-64
2023/01/04 07:06:54;;;;;;;3.87;2.00;;;11.70;99.90;;;;;;5071417;28;20279;-64
2023/01/04 07:09:24;;;;;;;9.33;2.20;;;11.70;99.90;;;;;;5070120;28;20194;-64
2023/01/04 07:11:52;;;;;;;1.87;1.80;;;11.70;99.90;;;;;;5067542;28;20223;-64
2023/01/04 07:14:20;;;;;;;2.80;1.80;;;11.70;99.90;;;;;;5069781;28;20203;-64
2023/01/04 07:16:49;;;;;;;3.30;1.77;;;11.70;99.90;;;;;;5067730;28;20228;-64
2023/01/04 07:19:17;;;;;;;2.10;2.00;;;11.70;99.90;;;;;;5069111;28;20200;-64
2023/01/04 07:21:45;;;;;;;8.07;2.10;;;11.80;99.90;;;;;;5071161;28;20189;-65
2023/01/04 07:24:14;;;;;;;3.13;2.03;;;11.80;99.90;;;;;;5061303;28;20211;-64
2023/01/04 07:26:44;;;;;;;4.40;2.00;;;11.90;99.90;;;;;;5091412;28;20204;-65
2023/01/04 07:29:14;;;;;;;2.40;1.73;;;11.90;99.90;;;;;;5053382;28;20196;-64
2023/01/04 07:31:44;;;;;;;4.40;2.20;;;12.00;99.90;;;;;;5064778;28;20196;-64
2023/01/04 07:34:13;;;;;;;2.53;2.07;;;12.00;99.90;;;;;;5048293;28;20276;-64
2023/01/04 07:36:42;;;;;;;2.33;1.73;;;12.10;99.90;;;;;;5071045;28;20216;-65
2023/01/04 07:39:11;;;;;;;1.87;1.73;;;12.10;99.90;;;;;;5058211;28;20647;-63
2023/01/04 07:41:40;;;;;;;3.87;1.80;;;12.10;99.90;;;;;;5077138;28;20202;-64
2023/01/04 07:44:11;;;;;;;3.30;1.83;;;12.00;99.90;;;;;;5068017;28;20192;-64
2023/01/04 07:46:40;;;;;;;4.53;1.93;;;12.00;99.90;;;;;;5097862;28;20192;-64
2023/01/04 07:49:11;;;;;;;1.80;1.70;;;12.00;99.90;;;;;;5072208;28;20788;-64
2023/01/04 07:51:45;;;;;;;3.50;2.00;;;12.00;99.90;;;;;;5072922;28;20677;-64
2023/01/04 07:54:14;;;;;;;2.37;2.10;;;12.00;99.90;;;;;;5064219;28;20201;-64
2023/01/04 07:56:42;;;;;;;2.00;1.90;;;12.00;99.90;;;;;;5070907;28;20211;-64
2023/01/04 07:59:14;;;;;;;1.90;1.80;;;12.00;99.90;;;;;;5070751;28;20196;-64
2023/01/04 08:01:42;;;;;;;1.63;1.53;;;12.00;99.90;;;;;;5068941;28;20203;-65
2023/01/04 08:04:13;;;;;;;4.87;1.80;;;12.00;99.90;;;;;;5065632;28;20283;-64
2023/01/04 08:06:42;;;;;;;1.50;1.50;;;12.00;99.90;;;;;;5073305;28;20266;-64
2023/01/04 08:09:11;;;;;;;1.80;1.70;;;12.00;99.90;;;;;;5071924;28;20196;-64
2023/01/04 08:11:40;;;;;;;1.97;1.87;;;12.00;99.90;;;;;;5072980;28;20198;-64
2023/01/04 08:14:08;;;;;;;2.20;1.80;;;12.00;99.90;;;;;;5067882;28;20195;-64
2023/01/04 08:16:39;;;;;;;3.60;1.60;;;12.00;99.90;;;;;;5063862;28;20231;-64
2023/01/04 08:19:12;;;;;;;2.30;1.60;;;12.00;99.90;;;;;;5070249;28;20215;-64
2023/01/04 08:21:41;;;;;;;1.90;1.63;;;12.00;99.90;;;;;;5072806;28;20215;-64
2023/01/04 08:24:11;;;;;;;1.97;1.77;;;12.00;99.90;;;;;;5066032;28;20214;-65
2023/01/04 08:26:39;;;;;;;2.20;2.00;;;12.00;99.90;;;;;;5069650;28;20188;-64
2023/01/04 08:29:08;;;;;;;3.67;2.10;;;12.00;99.90;;;;;;5069102;28;20278;-65
2023/01/04 08:31:39;;;;;;;4.50;2.50;;;12.00;99.90;;;;;;5071607;28;20231;-64
2023/01/04 08:34:08;;;;;;;2.70;2.50;;;12.00;99.90;;;;;;5063112;28;20196;-64
2023/01/04 08:36:48;;;;;;;2.43;2.30;;;12.10;99.90;;;;;;5065555;28;22087;-64
2023/01/04 08:39:16;;;;;;;2.97;2.40;;;12.10;99.90;;;;;;5064373;28;20279;-64
2023/01/04 08:41:52;;;;;;;4.83;2.40;;;12.10;99.90;;;;;;5067414;28;20692;-65
2023/01/04 08:44:28;;;;;;;8.83;2.50;;;12.10;99.90;;;;;;5071331;28;20527;-64
2023/01/04 08:46:58;;;;;;;4.30;2.40;;;12.20;99.90;;;;;;5069902;28;20192;-65
2023/01/04 08:49:27;;;;;;;4.10;2.40;;;12.20;99.90;;;;;;5070163;28;20250;-65
2023/01/04 08:51:56;;;;;;;5.73;2.67;;;12.20;99.90;;;;;;5069721;28;20192;-64
2023/01/04 08:54:24;;;;;;;2.50;2.30;;;12.20;99.90;;;;;;5070794;28;20196;-64
2023/01/04 08:56:52;;;;;;;3.73;2.60;;;12.30;99.90;;;;;;5057291;28;20215;-64
2023/01/04 08:59:21;;;;;;;2.40;2.20;;;12.30;99.90;;;;;;5056420;28;20207;-64
2023/01/04 09:01:49;;;;;;;6.40;2.37;;;12.40;99.90;;;;;;5069074;28;20198;-65
2023/01/04 09:04:19;;;;;;;2.50;2.30;;;12.40;99.90;;;;;;5068546;28;20254;-64
2023/01/04 09:06:47;;;;;;;4.13;2.50;;;12.40;99.90;;;;;;5054319;28;20894;-64
2023/01/04 09:09:16;;;;;;;4.97;2.30;;;12.40;99.90;;;;;;5064976;28;20202;-65
2023/01/04 09:11:44;;;;;;;3.73;2.30;;;12.40;99.90;;;;;;5060288;28;20207;-64
2023/01/04 09:14:12;;;;;;;3.93;1.87;;;12.50;99.90;;;;;;5067329;28;20207;-64
2023/01/04 09:16:41;;;;;;;6.40;2.47;;;12.50;99.90;;;;;;5064091;28;20238;-64
2023/01/04 09:19:09;;;;;;;6.73;2.33;;;12.60;99.90;;;;;;5068407;28;20294;-63
2023/01/04 09:21:42;;;;;;;3.10;1.83;;;12.60;99.90;;;;;;5064003;28;20198;-65
2023/01/04 09:24:10;;;;;;;4.20;1.80;;;12.50;99.90;;;;;;5068638;28;20209;-65
2023/01/04 09:26:39;;;;;;;3.73;1.80;;;12.50;99.90;;;;;;5066711;28;20253;-64
2023/01/04 09:29:07;;;;;;;2.10;1.90;;;12.50;99.90;;;;;;5068803;28;20666;-64
2023/01/04 09:31:35;;;;;;;7.53;1.90;;;12.60;99.90;;;;;;5067474;28;20200;-64
2023/01/04 09:34:04;;;;;;;3.00;2.30;;;12.50;99.90;;;;;;5068181;28;20635;-64
2023/01/04 09:36:44;;;;;;;3.27;2.00;;;12.50;99.90;;;;;;5051533;28;20262;-64
2023/01/04 09:39:12;;;;;;;2.50;2.37;;;12.40;99.90;;;;;;5055827;28;20210;-64
2023/01/04 09:41:55;;;;;;;3.43;2.30;;;12.40;99.90;;;;;;5068150;28;20215;-64
2023/01/04 09:44:35;;;;;;;2.80;2.60;;;12.40;99.90;;;;;;5061098;28;20203;-65
2023/01/04 09:47:32;;;;;;;5.40;2.70;;;12.30;99.90;;;;;;5057207;28;20188;-64
2023/01/04 09:50:05;;;;;;;2.40;2.27;;;12.20;99.90;;;;;;5072297;28;20196;-64
2023/01/04 09:52:48;;;;;;;2.80;2.63;;;12.20;99.90;;;;;;5071306;28;20192;-64
2023/01/04 09:55:21;;;;;;;2.40;2.23;;;12.10;99.90;;;;;;5071479;28;20547;-65
2023/01/04 09:58:26;;;;;;;3.07;2.60;;;12.10;99.90;;;;;;5067944;28;20269;-65
2023/01/04 10:01:01;;;;;;;1.73;1.73;;;12.10;99.90;;;;;;5067771;28;20659;-65
2023/01/04 10:03:32;;;;;;;2.00;1.90;;;12.00;99.90;;;;;;5061105;28;20535;-65
2023/01/04 10:06:03;;;;;;;3.23;2.20;;;12.00;99.90;;;;;;5065070;28;20192;-64
2023/01/04 10:08:34;;;;;;;2.00;1.90;;;11.90;99.90;;;;;;5073566;28;20559;-65
2023/01/04 10:11:19;;;;;;;4.70;2.37;;;11.90;99.90;;;;;;5073501;28;20247;-65
2023/01/04 10:14:06;;;;;;;2.60;2.10;;;11.90;99.90;;;;;;5065511;28;20211;-65
2023/01/04 10:16:48;;;;;;;2.70;2.50;;;11.90;99.90;;;;;;5059101;28;20236;-66
2023/01/04 10:19:50;;;;;;;2.60;2.30;;;11.90;99.90;;;;;;5046490;28;20188;-66
2023/01/04 10:22:46;;;;;;;2.90;2.70;;;11.90;99.90;;;;;;5060678;28;20199;-66
2023/01/04 10:25:39;;;;;;;3.33;2.70;;;11.80;99.90;;;;;;5064301;28;20202;-66
2023/01/04 10:28:21;;;;;;;3.43;2.60;;;11.80;99.90;;;;;;5060487;28;20197;-65
2023/01/04 10:30:58;;;;;;;3.23;2.93;;;11.90;99.90;;;;;;5060382;28;20210;-66
2023/01/04 10:33:35;;;;;;;3.00;2.70;;;11.90;99.90;;;;;;5072262;28;20192;-66
2023/01/04 10:36:12;;;;;;;3.20;2.73;;;11.90;99.90;;;;;;5058087;28;20263;-66
2023/01/04 10:38:43;;;;;;;4.13;2.93;;;11.90;99.90;;;;;;5072946;28;20192;-66
2023/01/04 10:41:20;;;;;;;3.47;3.27;;;11.90;99.90;;;;;;5066489;28;20196;-67
2023/01/04 10:43:59;;;;;;;2.90;2.80;;;11.90;99.90;;;;;;5045650;28;20206;-67
2023/01/04 10:46:46;;;;;;;3.73;3.00;;;11.80;99.90;;;;;;5058641;28;20258;-67
2023/01/04 10:49:20;;;;;;;3.10;2.70;;;11.90;99.90;;;;;;5067182;28;20187;-66
2023/01/04 10:51:56;;;;;;;4.83;2.67;;;11.90;99.90;;;;;;5062176;28;20593;-67
2023/01/04 10:54:29;;;;;;;3.67;2.93;;;11.90;99.90;;;;;;5053599;28;20192;-67
2023/01/04 10:57:04;;;;;;;4.30;3.10;;;11.90;99.90;;;;;;5064374;28;20215;-67
2023/01/04 10:59:39;;;;;;;3.00;2.80;;;12.00;99.90;;;;;;5065433;28;20234;-67
2023/01/04 11:02:16;;;;;;;3.00;2.80;;;11.90;99.90;;;;;;5058467;28;20329;-67
2023/01/04 11:04:52;;;;;;;3.83;3.33;;;12.00;99.90;;;;;;5090112;27;20188;-67
2023/01/04 11:07:25;;;;;;;4.30;3.30;;;12.00;99.90;;;;;;5057160;28;20184;-67
2023/01/04 11:09:57;;;;;;;3.27;2.97;;;12.00;99.90;;;;;;5072417;28;20286;-67
2023/01/04 11:12:27;;;;;;;3.03;2.93;;;12.00;99.90;;;;;;5065570;28;20643;-67
2023/01/04 11:14:56;;;;;;;3.30;3.20;;;12.00;99.90;;;;;;5096778;28;20200;-67
2023/01/04 11:17:25;;;;;;;3.77;2.97;;;12.00;99.90;;;;;;5065761;28;20227;-67
2023/01/04 11:19:54;;;;;;;3.37;3.07;;;12.00;99.90;;;;;;5064062;28;20192;-66
2023/01/04 11:22:28;;;;;;;6.13;3.53;;;12.10;99.90;;;;;;5064330;28;20208;-65
2023/01/04 11:25:01;;;;;;;3.53;3.10;;;12.10;99.90;;;;;;5058184;28;20234;-66
2023/01/04 11:27:54;;;;;;;3.70;3.50;;;12.00;99.90;;;;;;5064636;28;20696;-66
2023/01/04 11:30:25;;;;;;;2.93;2.83;;;12.10;99.90;;;;;;5060607;28;20282;-66
2023/01/04 11:32:59;;;;;;;3.30;3.10;;;12.10;99.90;;;;;;5061432;28;20276;-67
2023/01/04 11:35:39;;;;;;;3.03;2.80;;;12.10;99.90;;;;;;5065610;28;20203;-67
2023/01/04 11:38:13;;;;;;;3.50;3.20;;;12.10;99.90;;;;;;5064549;28;20302;-66
2023/01/04 11:40:53;;;;;;;3.37;3.07;;;12.10;99.90;;;;;;5061199;28;20745;-67
2023/01/04 11:43:24;;;;;;;3.00;2.90;;;12.10;99.90;;;;;;5073433;28;20590;-67
2023/01/04 11:45:56;;;;;;;2.80;2.60;;;12.10;99.90;;;;;;5067281;28;20841;-67
2023/01/04 11:48:39;;;;;;;2.77;2.60;;;12.10;99.90;;;;;;5066540;28;20196;-66
2023/01/04 11:51:18;;;;;;;3.47;2.67;;;12.20;99.90;;;;;;5063937;28;20649;-66
2023/01/04 11:53:57;;;;;;;2.33;2.23;;;12.20;99.90;;;;;;5060482;28;20197;-67
2023/01/04 11:56:28;;;;;;;2.20;2.00;;;12.20;99.90;;;;;;5061413;28;20193;-65
2023/01/04 11:59:12;;;;;;;2.67;1.90;;;12.30;99.90;;;;;;5067645;28;20264;-67
2023/01/04 12:01:45;;;;;;;2.10;2.00;;;12.20;99.90;;;;;;5061330;28;20204;-67
2023/01/04 12:04:18;;;;;;;2.50;1.53;;;12.30;99.90;;;;;;5061684;28;20976;-66
2023/01/04 12:06:51;;;;;;;1.70;1.70;;;12.30;99.90;;;;;;5062589;28;20196;-67
2023/01/04 12:09:21;;;;;;;2.07;1.40;;;12.30;99.90;;;;;;5063052;28;20192;-64
2023/01/04 12:11:51;;;;;;;1.40;1.30;;;12.30;99.90;;;;;;5058996;28;20196;-67
2023/01/04 12:14:27;;;;;;;1.40;1.40;;;12.40;99.90;;;;;;5063966;28;20208;-67
2023/01/04 12:17:02;;;;;;;1.40;1.40;;;12.30;99.90;;;;;;5058530;28;20362;-66
2023/01/04 12:19:30;;;;;;;1.33;1.30;;;12.40;99.90;;;;;;5062495;28;20183;-66
2023/01/04 12:22:01;;;;;;;1.53;1.43;;;12.30;99.90;;;;;;5061894;28;20192;-66
2023/01/04 12:24:32;;;;;;;1.47;1.40;;;12.30;99.90;;;;;;5067726;28;20208;-67
2023/01/04 12:27:02;;;;;;;1.27;1.27;;;12.30;99.90;;;;;;5060533;28;20188;-66
2023/01/04 12:29:57;;;;;;;1.40;1.40;;;12.30;99.90;;;;;;5064153;28;20654;-67
2023/01/04 12:32:41;;;;;;;2.30;1.20;;;12.30;99.90;;;;;;5055380;28;20210;-66
2023/01/04 12:36:00;;;;;;;1.27;1.20;;;12.30;99.90;;;;;;5056731;28;20199;-66
2023/01/04 12:39:11;;;;;;;1.53;1.40;;;12.30;99.90;;;;;;5034747;28;20232;-66
2023/01/04 12:42:17;;;;;;;1.20;1.20;;;12.40;99.90;;;;;;5106594;28;20274;-66
2023/01/04 12:45:21;;;;;;;1.17;1.17;;;12.40;99.90;;;;;;5066779;28;20265;-67
2023/01/04 12:51:20;;;;;;;1.10;1.10;;;12.40;99.90;;;;;;5073526;28;20188;-66
2023/01/04 12:54:30;;;;;;;1.30;1.30;;;12.40;99.90;;;;;;5073259;28;20241;-66
2023/01/04 12:57:24;;;;;;;1.50;1.40;;;12.40;99.90;;;;;;5073290;28;20593;-65
2023/01/04 12:59:57;;;;;;;1.83;1.70;;;12.40;99.90;;;;;;5071964;28;20294;-66
2023/01/04 13:02:28;;;;;;;2.20;1.60;;;12.40;99.90;;;;;;5073196;28;20195;-66
2023/01/04 13:04:58;;;;;;;2.23;1.70;;;12.40;99.90;;;;;;5073487;28;20211;-67
2023/01/04 13:07:50;;;;;;;2.97;2.07;;;12.40;99.90;;;;;;5073090;28;20597;-66
2023/01/04 13:10:26;;;;;;;4.47;2.43;;;12.40;99.90;;;;;;5073359;28;20538;-66
2023/01/04 13:13:19;;;;;;;2.03;1.90;;;12.40;99.90;;;;;;5073242;28;20176;-66
2023/01/04 13:15:59;;;;;;;2.23;1.90;;;12.40;99.90;;;;;;5053057;28;20237;-66
2023/01/04 13:18:41;;;;;;;2.00;1.90;;;12.40;99.90;;;;;;5053050;28;20666;-66
2023/01/04 13:21:15;;;;;;;2.07;1.97;;;12.40;99.90;;;;;;5053510;28;20280;-66
2023/01/04 13:23:50;;;;;;;4.00;2.00;;;12.40;99.90;;;;;;5058695;28;20196;-66
2023/01/04 13:26:36;;;;;;;4.53;2.90;;;12.40;99.90;;;;;;5059768;28;20716;-66
2023/01/04 13:29:07;;;;;;;4.77;2.27;;;12.40;99.90;;;;;;5059706;28;20669;-66
2023/01/04 13:31:44;;;;;;;3.70;2.20;;;12.40;99.90;;;;;;5058427;28;20318;-66
2023/01/04 13:34:19;;;;;;;3.80;2.13;;;12.40;99.90;;;;;;5059745;28;20211;-66
2023/01/04 13:37:22;;;;;;;2.40;2.20;;;12.40;99.90;;;;;;5059725;28;20192;-66
2023/01/04 13:39:59;;;;;;;3.10;2.57;;;12.40;99.90;;;;;;5058243;28;20238;-66
2023/01/04 13:42:31;;;;;;;7.63;2.57;;;12.40;99.90;;;;;;5059965;28;20196;-67
2023/01/04 13:45:36;;;;;;;4.10;2.50;;;12.40;99.90;;;;;;5059675;28;20196;-67
2023/01/04 13:48:11;;;;;;;6.17;3.13;;;12.40;99.90;;;;;;5063419;28;20562;-67
2023/01/04 13:50:46;;;;;;;3.93;2.53;;;12.40;99.90;;;;;;5080080;28;20241;-67
2023/01/04 13:53:20;;;;;;;5.13;2.60;;;12.30;99.90;;;;;;5078323;28;20199;-66
2023/01/04 13:55:53;;;;;;;3.33;2.30;;;12.30;99.90;;;;;;5079598;28;20553;-67
2023/01/04 13:58:23;;;;;;;6.63;2.50;;;12.30;99.90;;;;;;5078110;28;20222;-67
2023/01/04 14:00:56;;;;;;;6.80;2.50;;;12.40;99.90;;;;;;5080394;28;20670;-67
2023/01/04 14:03:29;;;;;;;9.50;4.13;;;12.40;99.90;;;;;;5079724;28;20191;-67
2023/01/04 14:06:13;;;;;;;6.23;3.50;;;12.40;99.90;;;;;;5079463;28;20188;-67
2023/01/04 14:08:46;;;;;;;10.93;3.40;;;12.50;99.90;;;;;;5078760;28;20176;-67
2023/01/04 14:11:57;;;;;;;6.33;2.40;;;12.40;99.90;;;;;;5078698;28;20195;-66
2023/01/04 14:14:31;;;;;;;9.40;3.40;;;12.40;99.90;;;;;;5079541;28;20200;-67
2023/01/04 14:17:28;;;;;;;6.07;2.60;;;12.40;99.90;;;;;;5079301;28;20228;-67